createdAt,value
2023-03-20T00:00:19.302Z,58.00
2023-03-20T00:03:05.846Z,57.94
2023-03-20T00:05:32.141Z,58.17
2023-03-20T00:07:58.752Z,58.45
2023-03-20T00:10:29.101Z,58.76
2023-03-20T00:12:55.796Z,58.74
2023-03-20T00:15:24.127Z,59.18
2023-03-20T00:17:50.424Z,60.05
2023-03-20T00:20:17.112Z,59.68
2023-03-20T00:22:43.466Z,59.94
2023-03-20T00:25:13.809Z,60.02
2023-03-20T00:27:40.590Z,60.10
2023-03-20T00:30:24.815Z,60.04
2023-03-20T00:32:52.361Z,60.06
2023-03-20T00:35:26.432Z,60.50
2023-03-20T00:37:53.488Z,60.97
2023-03-20T00:40:20.552Z,60.80
2023-03-20T00:42:50.325Z,60.94
2023-03-20T00:45:18.203Z,60.56
2023-03-20T00:47:45.366Z,60.55
2023-03-20T00:50:22.421Z,60.37
2023-03-20T00:52:49.953Z,60.18
2023-03-20T00:55:17.405Z,60.28
2023-03-20T00:57:47.337Z,60.38
2023-03-20T01:00:22.150Z,60.72
2023-03-20T01:02:49.175Z,60.44
2023-03-20T01:05:15.700Z,60.28
2023-03-20T01:07:41.952Z,60.42
2023-03-20T01:10:09.379Z,60.41
2023-03-20T01:12:35.740Z,60.59
2023-03-20T01:15:02.239Z,61.03
2023-03-20T01:17:28.773Z,61.19
2023-03-20T01:19:55.063Z,61.52
2023-03-20T01:22:21.431Z,61.75
2023-03-20T01:24:47.981Z,61.89
2023-03-20T01:27:16.182Z,61.84
2023-03-20T01:29:43.053Z,61.66
2023-03-20T01:32:17.376Z,61.72
2023-03-20T01:34:46.149Z,61.57
2023-03-20T01:37:16.442Z,61.48
2023-03-20T01:39:42.958Z,61.52
2023-03-20T01:42:13.394Z,61.47
2023-03-20T01:44:42.214Z,61.31
2023-03-20T01:47:16.545Z,61.55
2023-03-20T01:50:02.371Z,62.33
2023-03-20T01:52:28.765Z,62.06
2023-03-20T01:54:55.554Z,62.28
2023-03-20T01:57:23.453Z,62.56
2023-03-20T02:00:16.305Z,62.66
2023-03-20T02:02:44.403Z,62.84
2023-03-20T02:05:13.539Z,62.50
2023-03-20T02:07:40.030Z,62.35
2023-03-20T02:10:11.485Z,62.27
2023-03-20T02:12:44.555Z,62.08
2023-03-20T02:15:14.125Z,62.06
2023-03-20T02:18:06.347Z,61.95
2023-03-20T02:20:50.628Z,61.91
2023-03-20T02:23:34.298Z,61.91
2023-03-20T02:26:06.962Z,61.90
2023-03-20T02:28:33.292Z,61.75
2023-03-20T02:31:26.505Z,61.67
2023-03-20T02:33:56.583Z,61.72
2023-03-20T02:36:25.972Z,61.83
2023-03-20T02:38:52.332Z,61.74
2023-03-20T02:41:37.651Z,61.71
2023-03-20T02:44:08.064Z,61.52
2023-03-20T02:46:39.846Z,61.54
2023-03-20T02:49:16.776Z,61.68
2023-03-20T02:51:55.585Z,61.62
2023-03-20T02:54:25.023Z,61.79
2023-03-20T02:56:52.959Z,61.99
2023-03-20T02:59:35.641Z,62.14
2023-03-20T03:02:05.357Z,62.47
2023-03-20T03:04:34.619Z,62.61
2023-03-20T03:07:01.954Z,62.42
2023-03-20T03:09:33.641Z,62.34
2023-03-20T03:12:02.035Z,62.30
2023-03-20T03:14:44.370Z,62.32
2023-03-20T03:17:14.571Z,62.30
2023-03-20T03:19:45.401Z,62.29
2023-03-20T03:22:11.901Z,62.32
2023-03-20T03:24:42.333Z,62.29
2023-03-20T03:27:15.770Z,62.43
2023-03-20T03:29:42.833Z,63.15
2023-03-20T03:32:21.611Z,63.50
2023-03-20T03:34:48.072Z,62.89
2023-03-20T03:37:26.168Z,62.44
2023-03-20T03:40:11.145Z,62.75
2023-03-20T03:43:16.344Z,62.67
2023-03-20T03:45:52.857Z,62.94
2023-03-20T03:48:23.259Z,62.69
2023-03-20T03:50:54.113Z,63.31
2023-03-20T03:53:24.562Z,62.59
2023-03-20T03:55:52.887Z,62.02
2023-03-20T03:58:29.002Z,62.06
2023-03-20T04:00:57.133Z,61.79
2023-03-20T04:03:25.017Z,61.77
2023-03-20T04:05:53.892Z,61.81
2023-03-20T04:08:20.225Z,61.83
2023-03-20T04:10:46.616Z,61.98
2023-03-20T04:13:13.245Z,62.11
2023-03-20T04:15:39.798Z,61.89
2023-03-20T04:18:08.628Z,61.91
2023-03-20T04:20:38.045Z,62.05
2023-03-20T04:23:05.206Z,62.06
2023-03-20T04:25:31.560Z,62.12
2023-03-20T04:27:57.851Z,62.71
2023-03-20T04:30:42.177Z,62.67
2023-03-20T04:33:44.197Z,61.87
2023-03-20T04:36:47.351Z,61.81
2023-03-20T04:39:15.269Z,61.80
2023-03-20T04:41:41.680Z,61.95
2023-03-20T04:44:08.619Z,61.91
2023-03-20T04:46:35.306Z,61.90
2023-03-20T04:49:05.569Z,62.01
2023-03-20T04:51:32.136Z,62.18
2023-03-20T04:53:58.463Z,62.14
2023-03-20T04:56:24.763Z,62.23
2023-03-20T04:58:53.741Z,62.37
2023-03-20T05:01:21.618Z,62.41
2023-03-20T05:03:48.258Z,62.51
2023-03-20T05:06:14.800Z,63.21
2023-03-20T05:08:43.312Z,63.35
2023-03-20T05:11:10.234Z,63.04
2023-03-20T05:14:02.956Z,62.39
2023-03-20T05:16:43.567Z,62.43
2023-03-20T05:19:19.085Z,62.30
2023-03-20T05:21:53.450Z,62.73
2023-03-20T05:24:47.049Z,62.59
2023-03-20T05:27:36.232Z,62.12
2023-03-20T05:30:21.446Z,62.59
2023-03-20T05:33:08.434Z,62.65
2023-03-20T05:35:53.998Z,62.49
2023-03-20T05:38:40.554Z,62.46
2023-03-20T05:41:29.739Z,62.10
2023-03-20T05:44:18.491Z,61.95
2023-03-20T05:46:56.309Z,61.77
2023-03-20T05:49:52.181Z,61.89
2023-03-20T05:52:24.905Z,61.93
2023-03-20T05:55:11.449Z,61.84
2023-03-20T05:57:58.235Z,61.79
2023-03-20T06:00:41.568Z,61.71
2023-03-20T06:03:27.618Z,61.72
2023-03-20T06:05:58.900Z,63.07
2023-03-20T06:08:25.262Z,64.33
2023-03-20T06:10:51.963Z,64.96
2023-03-20T06:13:18.555Z,64.45
2023-03-20T06:15:44.972Z,64.37
2023-03-20T06:18:14.955Z,64.02
2023-03-20T06:20:41.345Z,62.77
2023-03-20T06:23:08.164Z,62.19
2023-03-20T06:25:34.779Z,61.91
2023-03-20T06:28:01.688Z,61.64
2023-03-20T06:30:28.177Z,61.65
2023-03-20T06:32:54.714Z,61.71
2023-03-20T06:35:22.072Z,62.10
2023-03-20T06:37:49.431Z,61.66
2023-03-20T06:40:20.432Z,61.51
2023-03-20T06:42:46.917Z,61.72
2023-03-20T06:45:13.835Z,62.63
2023-03-20T06:47:52.319Z,61.79
2023-03-20T06:50:19.445Z,61.49
2023-03-20T06:52:46.069Z,61.13
2023-03-20T06:55:38.737Z,61.08
2023-03-20T06:58:05.452Z,60.77
2023-03-20T07:00:32.385Z,60.62
2023-03-20T07:03:02.381Z,60.87
2023-03-20T07:05:29.270Z,60.89
2023-03-20T07:07:56.068Z,60.78
2023-03-20T07:10:22.384Z,60.86
2023-03-20T07:12:51.156Z,61.03
2023-03-20T07:15:18.142Z,60.85
2023-03-20T07:17:44.992Z,60.91
2023-03-20T07:20:11.944Z,60.94
2023-03-20T07:22:39.130Z,61.48
2023-03-20T07:25:16.399Z,61.06
2023-03-20T07:27:42.886Z,61.47
2023-03-20T07:30:10.132Z,61.37
2023-03-20T07:32:38.925Z,61.76
2023-03-20T07:35:05.546Z,60.89
2023-03-20T07:37:32.436Z,60.83
2023-03-20T07:40:03.502Z,59.63
2023-03-20T07:42:32.166Z,59.04
2023-03-20T07:45:05.812Z,59.09
2023-03-20T07:47:32.158Z,58.98
2023-03-20T07:49:58.789Z,59.34
2023-03-20T07:52:25.315Z,59.43
2023-03-20T07:54:52.832Z,59.60
2023-03-20T07:57:20.241Z,60.06
2023-03-20T07:59:47.045Z,60.73
2023-03-20T08:02:14.597Z,60.19
2023-03-20T08:04:41.102Z,60.36
2023-03-20T08:07:07.503Z,60.32
2023-03-20T08:09:34.234Z,60.47
2023-03-20T08:12:00.567Z,60.27
2023-03-20T08:14:26.953Z,60.28
2023-03-20T08:17:10.227Z,60.29
2023-03-20T08:19:39.648Z,60.07
2023-03-20T08:22:05.940Z,59.85
2023-03-20T08:24:32.235Z,59.78
2023-03-20T08:26:58.716Z,59.69
2023-03-20T08:29:25.386Z,59.56
2023-03-20T08:31:51.790Z,59.33
2023-03-20T08:37:36.049Z,59.13
2023-03-20T08:40:02.932Z,59.29
2023-03-20T08:42:29.576Z,59.37
2023-03-20T08:44:56.035Z,59.65
2023-03-20T08:47:22.552Z,59.58
2023-03-20T08:49:49.169Z,59.90
2023-03-20T08:52:15.779Z,59.82
2023-03-20T08:54:42.233Z,59.87
2023-03-20T08:57:08.819Z,60.13
2023-03-20T08:59:35.353Z,59.73
2023-03-20T09:02:01.895Z,59.66
2023-03-20T09:04:28.571Z,59.53
2023-03-20T09:06:55.164Z,59.70
2023-03-20T09:09:21.767Z,60.04
2023-03-20T09:11:48.419Z,60.13
2023-03-20T09:14:15.199Z,60.38
2023-03-20T09:16:41.682Z,60.39
2023-03-20T09:19:08.540Z,60.98
2023-03-20T09:21:47.200Z,60.60
2023-03-20T09:24:38.173Z,60.53
2023-03-20T09:27:09.020Z,60.85
2023-03-20T09:29:35.495Z,60.84
2023-03-20T09:32:02.963Z,60.97
2023-03-20T09:34:33.107Z,60.66
2023-03-20T09:36:59.638Z,60.54
2023-03-20T09:42:28.357Z,61.77
2023-03-20T09:45:18.741Z,60.75
2023-03-20T09:47:46.329Z,61.79
2023-03-20T09:50:22.492Z,61.93
2023-03-20T09:52:56.487Z,61.66
2023-03-20T09:55:43.965Z,61.70
2023-03-20T09:58:13.279Z,63.62
2023-03-20T10:00:51.419Z,64.26
2023-03-20T10:03:43.142Z,63.02
2023-03-20T10:06:18.677Z,62.50
2023-03-20T10:08:47.490Z,62.36
2023-03-20T10:11:26.726Z,64.05
2023-03-20T10:13:58.863Z,63.00
2023-03-20T10:16:50.665Z,63.96
2023-03-20T10:19:27.217Z,64.01
2023-03-20T10:22:01.000Z,64.04
2023-03-20T10:24:30.364Z,64.24
2023-03-20T10:27:01.663Z,64.15
2023-03-20T10:29:31.167Z,63.84
2023-03-20T10:32:04.114Z,64.31
2023-03-20T10:34:46.347Z,66.54
2023-03-20T10:37:21.979Z,65.11
2023-03-20T10:40:18.261Z,66.83
2023-03-20T10:42:46.544Z,64.70
2023-03-20T10:45:28.118Z,64.86
2023-03-20T10:47:56.169Z,65.34
2023-03-20T10:50:32.793Z,66.02
2023-03-20T10:53:01.708Z,64.87
2023-03-20T10:55:31.069Z,65.25
2023-03-20T10:58:01.572Z,65.59
2023-03-20T11:00:28.098Z,66.61
2023-03-20T11:06:09.277Z,68.44
2023-03-20T11:26:42.111Z,67.52
2023-03-20T11:29:17.559Z,68.26
2023-03-20T11:31:45.153Z,67.07
2023-03-20T11:34:15.437Z,67.07
2023-03-20T11:37:12.243Z,67.14
2023-03-20T11:39:53.168Z,66.95
2023-03-20T11:42:27.551Z,66.74
2023-03-20T11:45:15.828Z,66.07
2023-03-20T11:47:54.656Z,65.44
2023-03-20T11:51:04.241Z,64.89
2023-03-20T11:53:48.240Z,64.99
2023-03-20T11:57:17.251Z,65.13
2023-03-20T12:00:26.759Z,65.00
2023-03-20T12:03:25.677Z,65.38
2023-03-20T12:05:58.995Z,65.33
2023-03-20T12:08:26.816Z,65.22
2023-03-20T12:10:54.964Z,64.81
2023-03-20T12:13:24.562Z,64.66
2023-03-20T12:15:54.753Z,64.61
2023-03-20T12:18:31.099Z,64.82
2023-03-20T12:21:15.919Z,64.67
2023-03-20T12:23:42.298Z,64.41
2023-03-20T12:26:11.764Z,64.15
2023-03-20T12:28:57.115Z,64.02
2023-03-20T12:31:32.273Z,64.17
2023-03-20T12:34:01.272Z,64.97
2023-03-20T12:36:31.431Z,65.24
2023-03-20T12:38:58.226Z,65.86
2023-03-20T12:41:44.897Z,66.01
2023-03-20T12:44:24.908Z,66.47
2023-03-20T12:47:03.313Z,67.47
2023-03-20T12:50:02.271Z,66.10
2023-03-20T12:52:42.780Z,66.23
2023-03-20T12:55:12.764Z,67.91
2023-03-20T12:58:08.748Z,67.66
2023-03-20T13:00:47.154Z,67.87
2023-03-20T13:03:22.433Z,67.80
2023-03-20T13:05:51.705Z,68.25
2023-03-20T13:08:36.682Z,68.46
2023-03-20T13:11:10.453Z,68.82
2023-03-20T13:13:51.090Z,68.80
2023-03-20T13:16:42.342Z,68.54
2023-03-20T13:19:37.476Z,68.61
2023-03-20T13:22:16.874Z,68.54
2023-03-20T13:24:54.227Z,68.18
2023-03-20T13:27:33.898Z,68.47
2023-03-20T13:30:29.827Z,68.25
2023-03-20T13:33:32.648Z,68.15
2023-03-20T13:36:08.763Z,68.00
2023-03-20T13:38:38.508Z,67.77
2023-03-20T13:41:07.349Z,67.54
2023-03-20T13:43:42.711Z,67.19
2023-03-20T13:46:11.508Z,66.98
2023-03-20T13:48:39.019Z,66.49
2023-03-20T13:51:24.366Z,66.23
2023-03-20T13:53:54.539Z,66.04
2023-03-20T13:56:23.931Z,66.00
2023-03-20T13:58:53.445Z,66.36
2023-03-20T14:01:29.438Z,66.40
2023-03-20T14:03:56.190Z,66.26
2023-03-20T14:06:22.524Z,66.66
2023-03-20T14:08:52.914Z,67.11
2023-03-20T14:11:20.270Z,67.68
2023-03-20T14:13:57.389Z,67.02
2023-03-20T14:16:27.122Z,67.37
2023-03-20T14:19:08.851Z,68.47
2023-03-20T14:21:36.019Z,67.71
2023-03-20T14:24:06.793Z,67.90
2023-03-20T14:26:39.480Z,68.15
2023-03-20T14:29:08.973Z,68.26
2023-03-20T14:31:36.041Z,68.66
2023-03-20T14:34:05.680Z,68.94
2023-03-20T14:36:52.321Z,69.91
2023-03-20T14:39:21.927Z,69.80
2023-03-20T14:42:08.482Z,69.72
2023-03-20T14:44:59.007Z,69.58
2023-03-20T14:47:31.246Z,70.41
2023-03-20T14:50:04.547Z,70.51
2023-03-20T14:52:33.921Z,70.04
2023-03-20T14:55:19.545Z,70.00
2023-03-20T14:57:56.165Z,70.04
2023-03-20T15:00:28.043Z,70.45
2023-03-20T15:03:17.505Z,70.01
2023-03-20T15:05:45.390Z,69.99
2023-03-20T15:08:23.862Z,69.69
2023-03-20T15:10:54.855Z,70.75
2023-03-20T15:13:22.040Z,71.07
2023-03-20T15:15:59.596Z,70.50
2023-03-20T15:18:26.755Z,70.58
2023-03-20T15:20:55.598Z,70.45
2023-03-20T15:23:22.274Z,71.51
2023-03-20T15:25:49.881Z,70.85
2023-03-20T15:28:19.892Z,71.43
2023-03-20T15:30:47.522Z,71.45
2023-03-20T15:33:16.474Z,70.47
2023-03-20T15:35:42.978Z,70.68
2023-03-20T15:38:13.624Z,70.21
2023-03-20T15:41:28.074Z,69.93
2023-03-20T15:44:20.982Z,69.57
2023-03-20T15:46:50.485Z,69.08
2023-03-20T15:49:20.472Z,69.69
2023-03-20T15:51:47.584Z,70.79
2023-03-20T15:54:15.945Z,71.59
2023-03-20T15:56:46.131Z,71.55
2023-03-20T15:59:13.797Z,70.35
2023-03-20T16:01:40.129Z,70.35
2023-03-20T16:04:06.540Z,70.81
2023-03-20T16:06:32.933Z,70.05
2023-03-20T16:09:01.167Z,70.42
2023-03-20T16:11:38.611Z,70.21
2023-03-20T16:14:06.026Z,70.57
2023-03-20T16:16:32.687Z,71.20
2023-03-20T16:18:59.423Z,71.77
2023-03-20T16:21:31.583Z,71.92
2023-03-20T16:23:58.673Z,71.88
2023-03-20T16:26:26.241Z,71.90
2023-03-20T16:28:54.294Z,72.06
2023-03-20T16:31:28.690Z,71.73
2023-03-20T16:33:59.152Z,72.24
2023-03-20T16:36:29.752Z,72.95
2023-03-20T16:39:16.522Z,73.42
2023-03-20T16:41:43.298Z,72.24
2023-03-20T16:44:20.383Z,73.60
2023-03-20T16:47:00.892Z,74.30
2023-03-20T16:49:27.240Z,74.06
2023-03-20T16:51:56.002Z,73.45
2023-03-20T16:54:26.119Z,73.28
2023-03-20T16:56:53.285Z,73.23
2023-03-20T16:59:19.879Z,72.09
2023-03-20T17:01:49.263Z,72.36
2023-03-20T17:04:20.675Z,72.48
2023-03-20T17:06:49.572Z,72.17
2023-03-20T17:09:21.622Z,72.10
2023-03-20T17:11:56.418Z,72.14
2023-03-20T17:14:22.797Z,71.80
2023-03-20T17:16:51.154Z,72.28
2023-03-20T17:19:18.807Z,72.36
2023-03-20T17:21:45.554Z,73.18
2023-03-20T17:24:12.532Z,74.86
2023-03-20T17:26:43.728Z,75.07
2023-03-20T17:29:10.760Z,74.07
2023-03-20T17:31:37.571Z,73.98
2023-03-20T17:34:04.149Z,73.81
2023-03-20T17:36:31.371Z,73.98
2023-03-20T17:38:58.754Z,74.40
2023-03-20T17:41:25.409Z,74.39
2023-03-20T17:43:51.781Z,74.46
2023-03-20T17:46:19.354Z,75.11
2023-03-20T17:48:47.414Z,76.51
2023-03-20T17:51:13.897Z,76.99
2023-03-20T17:53:40.242Z,76.54
2023-03-20T17:56:13.750Z,76.56
2023-03-20T17:58:40.616Z,76.52
2023-03-20T18:01:07.348Z,76.55
2023-03-20T18:03:34.387Z,76.44
2023-03-20T18:06:01.007Z,75.37
2023-03-20T18:08:27.496Z,74.93
2023-03-20T18:10:54.350Z,75.62
2023-03-20T18:13:21.688Z,75.70
2023-03-20T18:15:49.254Z,75.66
2023-03-20T18:18:15.793Z,75.87
2023-03-20T18:20:42.208Z,75.99
2023-03-20T18:23:08.736Z,76.75
2023-03-20T18:25:35.778Z,76.91
2023-03-20T18:28:03.798Z,76.33
2023-03-20T18:30:36.496Z,76.53
2023-03-20T18:33:03.935Z,76.72
2023-03-20T18:35:30.617Z,76.79
2023-03-20T18:37:57.889Z,76.93
2023-03-20T18:40:28.797Z,75.42
2023-03-20T18:42:55.970Z,74.11
2023-03-20T18:45:24.142Z,73.79
2023-03-20T18:47:51.631Z,74.00
2023-03-20T18:50:18.022Z,74.16
2023-03-20T18:52:45.372Z,73.67
2023-03-20T18:55:12.866Z,74.51
2023-03-20T18:57:41.760Z,75.70
2023-03-20T19:00:20.650Z,76.24
2023-03-20T19:02:47.619Z,76.32
2023-03-20T19:05:14.541Z,74.11
2023-03-20T19:07:41.179Z,73.89
2023-03-20T19:10:27.828Z,74.09
2023-03-20T19:12:56.786Z,73.98
2023-03-20T19:15:24.713Z,74.19
2023-03-20T19:17:51.233Z,73.92
2023-03-20T19:20:32.147Z,73.97
2023-03-20T19:22:58.553Z,74.04
2023-03-20T19:25:25.068Z,74.45
2023-03-20T19:27:51.527Z,74.46
2023-03-20T19:30:34.959Z,74.58
2023-03-20T19:33:03.603Z,74.58
2023-03-20T19:35:54.491Z,74.55
2023-03-20T19:38:19.713Z,74.48
2023-03-20T19:40:47.138Z,74.55
2023-03-20T19:43:13.524Z,74.87
2023-03-20T19:45:41.545Z,74.73
2023-03-20T19:48:12.581Z,75.15
2023-03-20T19:50:41.704Z,75.21
2023-03-20T19:53:11.008Z,75.21
2023-03-20T19:55:38.408Z,75.58
2023-03-20T19:58:05.317Z,75.47
2023-03-20T20:00:56.814Z,75.60
2023-03-20T20:03:20.440Z,75.89
2023-03-20T20:05:47.718Z,76.37
2023-03-20T20:08:28.266Z,75.72
2023-03-20T20:10:57.360Z,75.45
2023-03-20T20:13:27.766Z,75.31
2023-03-20T20:15:54.647Z,75.41
2023-03-20T20:18:23.062Z,75.39
2023-03-20T20:22:06.420Z,75.44
2023-03-20T20:23:43.652Z,75.77
2023-03-20T20:26:09.968Z,76.20
2023-03-20T20:28:36.308Z,76.83
2023-03-20T20:31:02.953Z,75.93
2023-03-20T20:33:29.387Z,75.57
2023-03-20T20:36:27.871Z,75.74
2023-03-20T20:38:50.740Z,76.22
2023-03-20T20:41:17.693Z,76.62
2023-03-20T20:46:31.529Z,75.50
2023-03-20T20:48:58.084Z,75.68
2023-03-20T20:51:24.404Z,76.09
2023-03-20T20:53:50.789Z,75.97
2023-03-20T20:56:17.439Z,76.56
2023-03-20T20:58:43.785Z,76.64
2023-03-20T21:01:10.125Z,77.43
2023-03-20T21:03:36.680Z,77.01
2023-03-20T21:06:04.413Z,76.78
2023-03-20T21:08:30.758Z,77.09
2023-03-20T21:10:57.527Z,77.14
2023-03-20T21:13:23.996Z,77.35
2023-03-20T21:15:57.087Z,80.61
2023-03-20T21:18:26.629Z,81.36
2023-03-20T21:20:53.088Z,79.25
2023-03-20T21:23:19.511Z,77.68
2023-03-20T21:25:47.838Z,79.72
2023-03-20T21:28:14.863Z,78.10
2023-03-20T21:30:49.856Z,77.96
2023-03-20T21:33:23.507Z,78.33
2023-03-20T21:35:50.767Z,78.01
2023-03-20T21:41:08.716Z,78.01
2023-03-20T21:43:35.049Z,78.39
2023-03-20T21:54:59.796Z,79.60
2023-03-20T22:02:43.537Z,79.68
2023-03-20T22:17:20.877Z,80.45
2023-03-20T22:22:42.580Z,79.63
2023-03-20T22:28:06.989Z,80.90
2023-03-20T22:42:06.833Z,81.24
2023-03-20T22:45:19.693Z,81.02
2023-03-20T22:47:34.355Z,80.68
2023-03-20T22:50:19.610Z,80.05
2023-03-20T22:52:49.422Z,79.83
2023-03-20T22:55:16.876Z,79.85
2023-03-20T22:57:53.052Z,80.06
2023-03-20T23:00:26.494Z,80.20
2023-03-20T23:02:54.960Z,80.06
2023-03-20T23:05:23.803Z,80.06
2023-03-20T23:07:50.095Z,80.10
2023-03-20T23:10:16.728Z,80.46
2023-03-20T23:12:44.273Z,80.34
2023-03-20T23:15:11.043Z,80.30
2023-03-20T23:17:37.348Z,80.27
2023-03-20T23:20:11.589Z,80.11
2023-03-20T23:22:38.451Z,80.18
2023-03-20T23:25:13.350Z,80.04
2023-03-20T23:27:43.063Z,80.01
2023-03-20T23:30:10.141Z,79.84
2023-03-20T23:32:37.699Z,79.50
2023-03-20T23:35:04.961Z,79.57
2023-03-20T23:37:31.601Z,79.97
2023-03-20T23:39:57.878Z,79.55
2023-03-20T23:42:30.695Z,79.32
2023-03-20T23:47:45.217Z,79.40
2023-03-20T23:50:20.693Z,80.11
2023-03-20T23:53:01.026Z,80.49
2023-03-20T23:55:30.237Z,80.83
2023-03-20T23:57:57.070Z,80.59
